Time;durP1;ratioP1;P1;durP2;ratioP2;P2;SDS_P1;SDS_P2;PMS_P1;PMS_P2;Temp;Humidity;BMP_temperature;BMP_pressure;BME280_temperature;BME280_humidity;BME280_pressure;Samples;Min_cycle;Max_cycle;Signal;HPM_P1;HPM_P2
2022/02/26 00:00:48;;;;;;;;;;;;;;;;;;2090114;28;19933;-52
2022/02/26 00:01:49;;;;;;;;;;;;;;;;;;2089516;28;20330;-50
2022/02/26 00:02:51;;;;;;;;;;;;;;;;;;2090749;28;19928;-52
2022/02/26 00:03:52;;;;;;;;;;;;;;;;;;2089633;28;19925;-49
2022/02/26 00:04:53;;;;;;;;;;;;;;;;;;2089557;28;19925;-50
2022/02/26 00:05:54;;;;;;;;;;;;;;;;;;2093458;28;19947;-50
2022/02/26 00:06:55;;;;;;;;;;;;;;;;;;2097847;28;19974;-52
2022/02/26 00:07:55;;;;;;;;;;;;;;;;;;2096242;28;20018;-50
2022/02/26 00:08:56;;;;;;;;;;;;;;;;;;2095811;28;20329;-49
2022/02/26 00:09:57;;;;;;;;;;;;;;;;;;2097700;28;20393;-52
2022/02/26 00:10:58;;;;;;;;;;;;;;;;;;2096817;28;19981;-50
2022/02/26 00:11:59;;;;;;;;;;;;;;;;;;2096199;28;20015;-52
2022/02/26 00:13:00;;;;;;;;;;;;;;;;;;2097837;28;19924;-49
2022/02/26 00:14:01;;;;;;;;;;;;;;;;;;2096677;28;20282;-50
2022/02/26 00:15:06;;;;;;;;;;;;;;;;;;2090014;28;19924;-50
2022/02/26 00:16:07;;;;;;;;;;;;;;;;;;2089384;28;20473;-54
2022/02/26 00:17:08;;;;;;;;;;;;;;;;;;2092812;28;20035;-52
2022/02/26 00:18:09;;;;;;;;;;;;;;;;;;2097648;28;19930;-51
2022/02/26 00:19:11;;;;;;;;;;;;;;;;;;2097284;28;20419;-50
2022/02/26 00:20:13;;;;;;;;;;;;;;;;;;2095944;28;19925;-50
2022/02/26 00:21:14;;;;;;;;;;;;;;;;;;2097583;28;19932;-50
2022/02/26 00:22:15;;;;;;;;;;;;;;;;;;2095543;28;19924;-53
2022/02/26 00:23:16;;;;;;;;;;;;;;;;;;2095068;28;19972;-49
2022/02/26 00:24:17;;;;;;;;;;;;;;;;;;2097360;28;20308;-45
2022/02/26 00:25:18;;;;;;;;;;;;;;;;;;2093316;28;20023;-43
2022/02/26 00:26:22;;;;;;;;;;;;;;;;;;2097460;28;20023;-44
2022/02/26 00:27:22;;;;;;;;;;;;;;;;;;2097637;28;20158;-45
2022/02/26 00:28:24;;;;;;;;;;;;;;;;;;2095452;28;20267;-43
2022/02/26 00:29:24;;;;;;;;;;;;;;;;;;2097797;28;20011;-44
2022/02/26 00:30:25;;;;;;;;;;;;;;;;;;2097599;28;19932;-46
2022/02/26 00:31:26;;;;;;;;;;;;;;;;;;2095474;28;19932;-44
2022/02/26 00:32:27;;;;;;;;;;;;;;;;;;2097596;28;19925;-45
2022/02/26 00:33:28;;;;;;;;;;;;;;;;;;2097307;28;19928;-45
2022/02/26 00:34:29;;;;;;;;;;;;;;;;;;2095192;28;19924;-45
2022/02/26 00:35:30;;;;;;;;;;;;;;;;;;2097821;28;19924;-45
2022/02/26 00:36:31;;;;;;;;;;;;;;;;;;2095562;28;19986;-44
2022/02/26 00:37:32;;;;;;;;;;;;;;;;;;2095837;28;19925;-44
2022/02/26 00:38:33;;;;;;;;;;;;;;;;;;2097655;28;19924;-44
2022/02/26 00:39:34;;;;;;;;;;;;;;;;;;2096523;28;19932;-45
2022/02/26 00:40:34;;;;;;;;;;;;;;;;;;2096664;28;19925;-44
2022/02/26 00:41:35;;;;;;;;;;;;;;;;;;2097754;28;19967;-44
2022/02/26 00:42:36;;;;;;;;;;;;;;;;;;2095424;28;20447;-44
2022/02/26 00:43:37;;;;;;;;;;;;;;;;;;2097497;28;19932;-44
2022/02/26 00:44:38;;;;;;;;;;;;;;;;;;2097512;28;19928;-45
2022/02/26 00:45:39;;;;;;;;;;;;;;;;;;2094808;28;19928;-45
2022/02/26 00:46:40;;;;;;;;;;;;;;;;;;2097681;28;19925;-44
2022/02/26 00:47:41;;;;;;;;;;;;;;;;;;2096830;28;19978;-45
2022/02/26 00:50:01;;;;;;;;;;;;;;;;;;2097626;28;20007;-43
2022/02/26 00:51:06;;;;;;;;;;;;;;;;;;2095333;28;20006;-44
2022/02/26 00:52:07;;;;;;;;;;;;;;;;;;2097462;28;19924;-44
2022/02/26 00:53:08;;;;;;;;;;;;;;;;;;2097517;28;20050;-45
2022/02/26 00:54:09;;;;;;;;;;;;;;;;;;2094219;28;19929;-44
2022/02/26 00:55:10;;;;;;;;;;;;;;;;;;2098055;28;19932;-44
2022/02/26 00:56:10;;;;;;;;;;;;;;;;;;2096610;28;19924;-44
2022/02/26 00:57:11;;;;;;;;;;;;;;;;;;2094714;28;19960;-44
2022/02/26 00:58:12;;;;;;;;;;;;;;;;;;2097515;28;19924;-44
2022/02/26 00:59:13;;;;;;;;;;;;;;;;;;2095483;28;19929;-50
2022/02/26 01:00:14;;;;;;;;;;;;;;;;;;2096271;28;20421;-44
2022/02/26 01:01:15;;;;;;;;;;;;;;;;;;2097443;28;19925;-44
2022/02/26 01:02:17;;;;;;;;;;;;;;;;;;2095372;28;19924;-45
2022/02/26 01:03:18;;;;;;;;;;;;;;;;;;2097640;28;19931;-44
2022/02/26 01:04:19;;;;;;;;;;;;;;;;;;2098895;28;19947;-43
2022/02/26 01:05:20;;;;;;;;;;;;;;;;;;2096700;28;19924;-44
2022/02/26 01:06:21;;;;;;;;;;;;;;;;;;2098430;28;19925;-45
2022/02/26 01:07:21;;;;;;;;;;;;;;;;;;2097949;28;20377;-44
2022/02/26 01:08:22;;;;;;;;;;;;;;;;;;2095001;28;19931;-44
2022/02/26 01:09:23;;;;;;;;;;;;;;;;;;2098845;28;19928;-44
2022/02/26 01:10:24;;;;;;;;;;;;;;;;;;2096800;28;19925;-44
2022/02/26 01:11:25;;;;;;;;;;;;;;;;;;2096215;28;20389;-45
2022/02/26 01:12:28;;;;;;;;;;;;;;;;;;2098859;28;19925;-44
2022/02/26 01:13:29;;;;;;;;;;;;;;;;;;2097132;28;19932;-44
2022/02/26 01:14:30;;;;;;;;;;;;;;;;;;2098540;28;20305;-46
2022/02/26 01:15:31;;;;;;;;;;;;;;;;;;2098740;28;19931;-44
2022/02/26 01:16:32;;;;;;;;;;;;;;;;;;2095172;28;20404;-44
2022/02/26 01:17:33;;;;;;;;;;;;;;;;;;2098940;28;19924;-44
2022/02/26 01:18:34;;;;;;;;;;;;;;;;;;2098717;28;20389;-46
2022/02/26 01:19:35;;;;;;;;;;;;;;;;;;2096794;28;19925;-50
2022/02/26 01:20:35;;;;;;;;;;;;;;;;;;2099183;28;19924;-45
2022/02/26 01:21:36;;;;;;;;;;;;;;;;;;2098160;28;19967;-45
2022/02/26 01:22:37;;;;;;;;;;;;;;;;;;2097105;28;19924;-44
2022/02/26 01:23:38;;;;;;;;;;;;;;;;;;2098791;28;19925;-44
2022/02/26 01:24:39;;;;;;;;;;;;;;;;;;2095542;28;19971;-44
2022/02/26 01:25:40;;;;;;;;;;;;;;;;;;2097631;28;19924;-51
2022/02/26 01:26:40;;;;;;;;;;;;;;;;;;2098803;28;19932;-54
2022/02/26 01:27:41;;;;;;;;;;;;;;;;;;2097797;28;20281;-50
2022/02/26 01:28:42;;;;;;;;;;;;;;;;;;2090666;28;19952;-44
2022/02/26 01:29:43;;;;;;;;;;;;;;;;;;2090723;28;20416;-51
2022/02/26 01:30:44;;;;;;;;;;;;;;;;;;2093517;28;20029;-50
2022/02/26 01:31:45;;;;;;;;;;;;;;;;;;2098762;28;19928;-50
2022/02/26 01:32:46;;;;;;;;;;;;;;;;;;2098638;28;19925;-50
2022/02/26 01:33:47;;;;;;;;;;;;;;;;;;2096464;28;19968;-50
2022/02/26 01:34:47;;;;;;;;;;;;;;;;;;2098407;28;19968;-50
2022/02/26 01:35:48;;;;;;;;;;;;;;;;;;2098295;28;20024;-44
2022/02/26 01:36:49;;;;;;;;;;;;;;;;;;2096236;28;20012;-44
2022/02/26 01:37:50;;;;;;;;;;;;;;;;;;2098759;28;19924;-44
2022/02/26 01:38:51;;;;;;;;;;;;;;;;;;2097006;28;19924;-44
2022/02/26 01:39:52;;;;;;;;;;;;;;;;;;2096814;28;20242;-45
2022/02/26 01:40:53;;;;;;;;;;;;;;;;;;2098546;28;19928;-44
2022/02/26 01:41:54;;;;;;;;;;;;;;;;;;2094041;28;19925;-44
2022/02/26 01:42:54;;;;;;;;;;;;;;;;;;2098525;28;19947;-44
2022/02/26 01:43:55;;;;;;;;;;;;;;;;;;2098665;28;19931;-44
2022/02/26 01:44:56;;;;;;;;;;;;;;;;;;2096003;28;19928;-44
2022/02/26 01:45:57;;;;;;;;;;;;;;;;;;2090245;28;19929;-44
2022/02/26 01:46:58;;;;;;;;;;;;;;;;;;2090389;28;20386;-44
2022/02/26 01:47:59;;;;;;;;;;;;;;;;;;2095503;28;20290;-44
2022/02/26 01:49:00;;;;;;;;;;;;;;;;;;2098557;28;20018;-43
2022/02/26 01:50:01;;;;;;;;;;;;;;;;;;2097898;28;19928;-43
2022/02/26 01:51:06;;;;;;;;;;;;;;;;;;2097100;28;20326;-45
2022/02/26 01:52:07;;;;;;;;;;;;;;;;;;2098654;28;19925;-43
2022/02/26 01:53:10;;;;;;;;;;;;;;;;;;2096750;28;20289;-50
2022/02/26 01:54:12;;;;;;;;;;;;;;;;;;2098331;28;19970;-51
2022/02/26 01:55:13;;;;;;;;;;;;;;;;;;2098469;28;19924;-53
2022/02/26 01:56:13;;;;;;;;;;;;;;;;;;2096364;28;19964;-50
2022/02/26 01:57:14;;;;;;;;;;;;;;;;;;2098491;28;19963;-49
2022/02/26 01:58:15;;;;;;;;;;;;;;;;;;2098571;28;20003;-50
2022/02/26 01:59:16;;;;;;;;;;;;;;;;;;2096220;28;20394;-51
2022/02/26 02:00:17;;;;;;;;;;;;;;;;;;2098688;28;20364;-52
2022/02/26 02:01:18;;;;;;;;;;;;;;;;;;2097831;28;19929;-50
2022/02/26 02:02:19;;;;;;;;;;;;;;;;;;2095895;28;19925;-51
2022/02/26 02:03:20;;;;;;;;;;;;;;;;;;2098654;28;19924;-51
2022/02/26 02:04:21;;;;;;;;;;;;;;;;;;2097750;28;19931;-50
2022/02/26 02:05:22;;;;;;;;;;;;;;;;;;2097132;28;19931;-49
2022/02/26 02:06:23;;;;;;;;;;;;;;;;;;2098126;28;20330;-51
2022/02/26 02:07:24;;;;;;;;;;;;;;;;;;2095470;28;19935;-44
2022/02/26 02:08:24;;;;;;;;;;;;;;;;;;2098380;28;19929;-45
2022/02/26 02:09:25;;;;;;;;;;;;;;;;;;2098564;28;20018;-45
2022/02/26 02:10:26;;;;;;;;;;;;;;;;;;2095200;28;19924;-49
2022/02/26 02:11:27;;;;;;;;;;;;;;;;;;2098407;28;19984;-50
2022/02/26 02:12:28;;;;;;;;;;;;;;;;;;2098571;28;19974;-53
2022/02/26 02:13:29;;;;;;;;;;;;;;;;;;2096441;28;19929;-52
2022/02/26 02:14:30;;;;;;;;;;;;;;;;;;2098541;28;19931;-50
2022/02/26 02:15:31;;;;;;;;;;;;;;;;;;2095148;28;19931;-49
2022/02/26 02:16:32;;;;;;;;;;;;;;;;;;2095969;28;19928;-50
2022/02/26 02:17:33;;;;;;;;;;;;;;;;;;2098558;28;19925;-50
2022/02/26 02:18:34;;;;;;;;;;;;;;;;;;2094524;28;19925;-50
2022/02/26 02:19:35;;;;;;;;;;;;;;;;;;2097137;28;19970;-49
2022/02/26 02:20:36;;;;;;;;;;;;;;;;;;2098498;28;19925;-50
2022/02/26 02:21:37;;;;;;;;;;;;;;;;;;2096732;28;19939;-50
2022/02/26 02:22:37;;;;;;;;;;;;;;;;;;2090047;28;19924;-45
2022/02/26 02:23:39;;;;;;;;;;;;;;;;;;2097770;28;19960;-43
2022/02/26 02:24:40;;;;;;;;;;;;;;;;;;2095288;28;19925;-51
2022/02/26 02:25:41;;;;;;;;;;;;;;;;;;2098452;28;19931;-50
2022/02/26 02:26:42;;;;;;;;;;;;;;;;;;2097227;28;19936;-52
2022/02/26 02:27:43;;;;;;;;;;;;;;;;;;2096034;28;20003;-43
2022/02/26 02:28:43;;;;;;;;;;;;;;;;;;2098420;28;19936;-50
2022/02/26 02:29:44;;;;;;;;;;;;;;;;;;2096279;28;20343;-49
2022/02/26 02:30:45;;;;;;;;;;;;;;;;;;2095652;28;19925;-50
2022/02/26 02:31:46;;;;;;;;;;;;;;;;;;2098475;28;20304;-44
2022/02/26 02:32:47;;;;;;;;;;;;;;;;;;2096247;28;19931;-44
2022/02/26 02:33:48;;;;;;;;;;;;;;;;;;2098040;28;19928;-44
2022/02/26 02:34:51;;;;;;;;;;;;;;;;;;2098481;28;19986;-44
2022/02/26 02:35:52;;;;;;;;;;;;;;;;;;2093478;28;20417;-43
2022/02/26 02:36:53;;;;;;;;;;;;;;;;;;2098318;28;19955;-43
2022/02/26 02:37:54;;;;;;;;;;;;;;;;;;2098202;28;19932;-43
2022/02/26 02:38:56;;;;;;;;;;;;;;;;;;2093710;28;20049;-43
2022/02/26 02:39:56;;;;;;;;;;;;;;;;;;2098649;28;20001;-50
2022/02/26 02:40:57;;;;;;;;;;;;;;;;;;2096643;28;20015;-50
2022/02/26 02:41:58;;;;;;;;;;;;;;;;;;2095209;28;19928;-49
2022/02/26 02:42:59;;;;;;;;;;;;;;;;;;2098227;28;20380;-49
2022/02/26 02:44:00;;;;;;;;;;;;;;;;;;2095962;28;20019;-52
2022/02/26 02:45:05;;;;;;;;;;;;;;;;;;2097323;28;20473;-48
2022/02/26 02:46:06;;;;;;;;;;;;;;;;;;2098284;28;19940;-49
2022/02/26 02:47:07;;;;;;;;;;;;;;;;;;2096325;28;19980;-44
2022/02/26 02:48:08;;;;;;;;;;;;;;;;;;2098256;28;19958;-44
2022/02/26 02:49:09;;;;;;;;;;;;;;;;;;2098258;28;19950;-43
2022/02/26 02:50:10;;;;;;;;;;;;;;;;;;2094736;28;19924;-43
2022/02/26 02:51:11;;;;;;;;;;;;;;;;;;2098112;28;19947;-44
2022/02/26 02:52:11;;;;;;;;;;;;;;;;;;2097867;28;19925;-44
2022/02/26 02:53:16;;;;;;;;;;;;;;;;;;2096767;28;20019;-44
2022/02/26 02:54:17;;;;;;;;;;;;;;;;;;2098230;28;20011;-43
2022/02/26 02:55:20;;;;;;;;;;;;;;;;;;2096000;28;20400;-43
2022/02/26 02:56:21;;;;;;;;;;;;;;;;;;2097672;28;20061;-49
2022/02/26 02:57:22;;;;;;;;;;;;;;;;;;2098316;28;19928;-48
2022/02/26 02:58:22;;;;;;;;;;;;;;;;;;2094924;28;20042;-49
2022/02/26 02:59:24;;;;;;;;;;;;;;;;;;2096888;28;20070;-49
2022/02/26 03:00:25;;;;;;;;;;;;;;;;;;2098144;28;20385;-52
2022/02/26 03:01:26;;;;;;;;;;;;;;;;;;2094457;28;19931;-51
2022/02/26 03:02:27;;;;;;;;;;;;;;;;;;2098140;28;20320;-50
2022/02/26 03:03:28;;;;;;;;;;;;;;;;;;2098172;28;19931;-49
2022/02/26 03:04:29;;;;;;;;;;;;;;;;;;2095163;28;19935;-52
2022/02/26 03:05:30;;;;;;;;;;;;;;;;;;2098060;28;19946;-49
2022/02/26 03:06:31;;;;;;;;;;;;;;;;;;2097359;28;19963;-52
2022/02/26 03:07:32;;;;;;;;;;;;;;;;;;2096343;28;20281;-49
2022/02/26 03:08:33;;;;;;;;;;;;;;;;;;2098064;28;19967;-49
2022/02/26 03:09:34;;;;;;;;;;;;;;;;;;2095794;28;19925;-52
2022/02/26 03:10:35;;;;;;;;;;;;;;;;;;2096864;28;19925;-52
2022/02/26 03:11:36;;;;;;;;;;;;;;;;;;2098005;28;19936;-50
2022/02/26 03:12:36;;;;;;;;;;;;;;;;;;2094667;28;19933;-50
2022/02/26 03:13:39;;;;;;;;;;;;;;;;;;2097964;28;19931;-49
2022/02/26 03:14:39;;;;;;;;;;;;;;;;;;2098345;28;19929;-49
2022/02/26 03:15:40;;;;;;;;;;;;;;;;;;2095712;28;20337;-51
2022/02/26 03:16:41;;;;;;;;;;;;;;;;;;2097826;28;19929;-50
2022/02/26 03:17:42;;;;;;;;;;;;;;;;;;2097594;28;19929;-48
2022/02/26 03:18:43;;;;;;;;;;;;;;;;;;2095114;28;19928;-52
2022/02/26 03:19:49;;;;;;;;;;;;;;;;;;2098389;28;20011;-44
2022/02/26 03:20:53;;;;;;;;;;;;;;;;;;2097209;28;20518;-53
2022/02/26 03:21:53;;;;;;;;;;;;;;;;;;2096619;28;20094;-44
2022/02/26 03:22:54;;;;;;;;;;;;;;;;;;2098097;28;19985;-45
2022/02/26 03:23:55;;;;;;;;;;;;;;;;;;2096538;28;20006;-43
2022/02/26 03:24:56;;;;;;;;;;;;;;;;;;2097171;28;20381;-44
2022/02/26 03:25:57;;;;;;;;;;;;;;;;;;2097987;28;19924;-44
2022/02/26 03:26:58;;;;;;;;;;;;;;;;;;2092881;28;20404;-44
2022/02/26 03:27:58;;;;;;;;;;;;;;;;;;2097930;28;19940;-44
2022/02/26 03:29:00;;;;;;;;;;;;;;;;;;2097627;28;19924;-44
2022/02/26 03:30:01;;;;;;;;;;;;;;;;;;2093838;28;20081;-44
2022/02/26 03:31:02;;;;;;;;;;;;;;;;;;2097860;28;19966;-44
2022/02/26 03:32:02;;;;;;;;;;;;;;;;;;2096155;28;19956;-43
2022/02/26 03:33:07;;;;;;;;;;;;;;;;;;2096234;28;19931;-44
2022/02/26 03:34:08;;;;;;;;;;;;;;;;;;2097916;28;19924;-44
2022/02/26 03:35:09;;;;;;;;;;;;;;;;;;2095917;28;20019;-44
2022/02/26 03:36:10;;;;;;;;;;;;;;;;;;2097666;28;19947;-45
2022/02/26 03:37:11;;;;;;;;;;;;;;;;;;2098359;28;19993;-49
2022/02/26 03:38:11;;;;;;;;;;;;;;;;;;2095419;28;19979;-50
2022/02/26 03:39:12;;;;;;;;;;;;;;;;;;2098259;28;19925;-50
2022/02/26 03:40:13;;;;;;;;;;;;;;;;;;2097816;28;19924;-49
2022/02/26 03:41:14;;;;;;;;;;;;;;;;;;2095684;28;19924;-48
2022/02/26 03:42:15;;;;;;;;;;;;;;;;;;2098161;28;20022;-51
2022/02/26 03:43:18;;;;;;;;;;;;;;;;;;2097751;28;19931;-44
2022/02/26 03:44:19;;;;;;;;;;;;;;;;;;2096399;28;19978;-44
2022/02/26 03:45:22;;;;;;;;;;;;;;;;;;2097795;28;20015;-44
2022/02/26 03:46:23;;;;;;;;;;;;;;;;;;2096184;28;19930;-44
2022/02/26 03:47:24;;;;;;;;;;;;;;;;;;2096585;28;19925;-45
2022/02/26 03:48:25;;;;;;;;;;;;;;;;;;2097955;28;19925;-43
2022/02/26 03:49:26;;;;;;;;;;;;;;;;;;2095905;28;20019;-45
2022/02/26 03:50:27;;;;;;;;;;;;;;;;;;2097689;28;19970;-44
2022/02/26 03:51:28;;;;;;;;;;;;;;;;;;2097647;28;20149;-44
2022/02/26 03:52:29;;;;;;;;;;;;;;;;;;2095784;28;19928;-44
2022/02/26 03:53:30;;;;;;;;;;;;;;;;;;2097792;28;19924;-44
2022/02/26 03:54:31;;;;;;;;;;;;;;;;;;2097422;28;20352;-43
2022/02/26 03:55:34;;;;;;;;;;;;;;;;;;2096651;28;19928;-49
2022/02/26 03:56:34;;;;;;;;;;;;;;;;;;2097806;28;20360;-50
2022/02/26 03:57:35;;;;;;;;;;;;;;;;;;2095612;28;20015;-52
2022/02/26 03:58:36;;;;;;;;;;;;;;;;;;2095159;28;19929;-52
2022/02/26 03:59:37;;;;;;;;;;;;;;;;;;2097643;28;19935;-51
2022/02/26 04:00:41;;;;;;;;;;;;;;;;;;2093973;28;20302;-50
2022/02/26 04:01:42;;;;;;;;;;;;;;;;;;2096701;28;19935;-44
2022/02/26 04:02:43;;;;;;;;;;;;;;;;;;2097821;28;19996;-44
2022/02/26 04:03:44;;;;;;;;;;;;;;;;;;2095456;28;20293;-44
2022/02/26 04:04:45;;;;;;;;;;;;;;;;;;2098101;28;19946;-44
2022/02/26 04:05:46;;;;;;;;;;;;;;;;;;2097680;28;19935;-43
2022/02/26 04:06:47;;;;;;;;;;;;;;;;;;2095592;28;19932;-44
2022/02/26 04:07:48;;;;;;;;;;;;;;;;;;2097329;28;19928;-48
2022/02/26 04:08:49;;;;;;;;;;;;;;;;;;2095983;28;19928;-50
2022/02/26 04:09:49;;;;;;;;;;;;;;;;;;2095618;28;19932;-52
2022/02/26 04:10:50;;;;;;;;;;;;;;;;;;2097787;28;19963;-49
2022/02/26 04:11:51;;;;;;;;;;;;;;;;;;2094922;28;20282;-50
2022/02/26 04:12:52;;;;;;;;;;;;;;;;;;2095851;28;19934;-51
2022/02/26 04:13:53;;;;;;;;;;;;;;;;;;2097900;28;19929;-49
2022/02/26 04:14:54;;;;;;;;;;;;;;;;;;2096621;28;20339;-50
2022/02/26 04:15:55;;;;;;;;;;;;;;;;;;2096639;28;19924;-49
2022/02/26 04:16:55;;;;;;;;;;;;;;;;;;2097798;28;19932;-49
2022/02/26 04:17:56;;;;;;;;;;;;;;;;;;2094120;28;20431;-51
2022/02/26 04:18:57;;;;;;;;;;;;;;;;;;2097706;28;19974;-49
2022/02/26 04:19:58;;;;;;;;;;;;;;;;;;2097697;28;19931;-50
2022/02/26 04:20:59;;;;;;;;;;;;;;;;;;2095754;28;20016;-50
2022/02/26 04:22:00;;;;;;;;;;;;;;;;;;2097812;28;20344;-44
2022/02/26 04:23:02;;;;;;;;;;;;;;;;;;2097193;28;19931;-44
2022/02/26 04:24:02;;;;;;;;;;;;;;;;;;2096199;28;20372;-43
2022/02/26 04:25:03;;;;;;;;;;;;;;;;;;2097674;28;19925;-43
2022/02/26 04:26:04;;;;;;;;;;;;;;;;;;2095719;28;19924;-44
2022/02/26 04:27:05;;;;;;;;;;;;;;;;;;2096438;28;20357;-44
2022/02/26 04:28:06;;;;;;;;;;;;;;;;;;2097860;28;19939;-50
2022/02/26 04:29:07;;;;;;;;;;;;;;;;;;2096458;28;20549;-43
2022/02/26 04:30:08;;;;;;;;;;;;;;;;;;2089593;28;19928;-43
2022/02/26 04:31:14;;;;;;;;;;;;;;;;;;2089479;28;19925;-53
2022/02/26 04:32:14;;;;;;;;;;;;;;;;;;2093588;28;20028;-53
2022/02/26 04:33:17;;;;;;;;;;;;;;;;;;2097853;28;19925;-43
2022/02/26 04:34:18;;;;;;;;;;;;;;;;;;2096953;28;20293;-43
2022/02/26 04:35:18;;;;;;;;;;;;;;;;;;2095860;28;19959;-44
2022/02/26 04:36:19;;;;;;;;;;;;;;;;;;2097571;28;19972;-43
2022/02/26 04:37:20;;;;;;;;;;;;;;;;;;2096678;28;19929;-43
2022/02/26 04:38:21;;;;;;;;;;;;;;;;;;2096643;28;20318;-44
2022/02/26 04:39:22;;;;;;;;;;;;;;;;;;2099068;28;20288;-44
2022/02/26 04:40:23;;;;;;;;;;;;;;;;;;2094777;28;20324;-43
2022/02/26 04:41:23;;;;;;;;;;;;;;;;;;2097922;28;20029;-44
2022/02/26 04:42:24;;;;;;;;;;;;;;;;;;2099412;28;20273;-51
2022/02/26 04:43:28;;;;;;;;;;;;;;;;;;2094569;28;19970;-52
2022/02/26 04:44:29;;;;;;;;;;;;;;;;;;2099095;28;20024;-51
2022/02/26 04:45:30;;;;;;;;;;;;;;;;;;2098730;28;19924;-49
2022/02/26 04:46:31;;;;;;;;;;;;;;;;;;2097388;28;20019;-44
2022/02/26 04:47:32;;;;;;;;;;;;;;;;;;2099390;28;19925;-44
2022/02/26 04:48:33;;;;;;;;;;;;;;;;;;2098441;28;20007;-44
2022/02/26 04:49:34;;;;;;;;;;;;;;;;;;2093125;28;19932;-44
2022/02/26 04:50:34;;;;;;;;;;;;;;;;;;2090789;28;20298;-44
2022/02/26 04:51:35;;;;;;;;;;;;;;;;;;2092581;28;19932;-51
2022/02/26 04:52:36;;;;;;;;;;;;;;;;;;2098571;28;20023;-50
2022/02/26 04:53:37;;;;;;;;;;;;;;;;;;2099159;28;19924;-49
2022/02/26 04:54:38;;;;;;;;;;;;;;;;;;2096927;28;19970;-51
2022/02/26 04:55:39;;;;;;;;;;;;;;;;;;2098711;28;19929;-49
2022/02/26 04:56:40;;;;;;;;;;;;;;;;;;2098858;28;19925;-53
2022/02/26 04:57:41;;;;;;;;;;;;;;;;;;2095746;28;19978;-44
2022/02/26 04:58:42;;;;;;;;;;;;;;;;;;2098962;28;20304;-44
2022/02/26 04:59:43;;;;;;;;;;;;;;;;;;2099006;28;20261;-51
2022/02/26 05:00:44;;;;;;;;;;;;;;;;;;2097095;28;19935;-53
2022/02/26 05:01:45;;;;;;;;;;;;;;;;;;2099030;28;19925;-48
2022/02/26 05:02:46;;;;;;;;;;;;;;;;;;2098185;28;19970;-50
2022/02/26 05:03:47;;;;;;;;;;;;;;;;;;2097407;28;20312;-50
2022/02/26 05:04:48;;;;;;;;;;;;;;;;;;2098821;28;19924;-49
2022/02/26 05:05:48;;;;;;;;;;;;;;;;;;2096953;28;19925;-43
2022/02/26 05:06:49;;;;;;;;;;;;;;;;;;2098657;28;19924;-43
2022/02/26 05:07:50;;;;;;;;;;;;;;;;;;2098601;28;20327;-43
2022/02/26 05:08:51;;;;;;;;;;;;;;;;;;2096687;28;19924;-43
2022/02/26 05:09:52;;;;;;;;;;;;;;;;;;2090534;28;20406;-43
2022/02/26 05:10:53;;;;;;;;;;;;;;;;;;2090975;28;19925;-49
2022/02/26 05:11:53;;;;;;;;;;;;;;;;;;2094737;28;20257;-51
2022/02/26 05:12:54;;;;;;;;;;;;;;;;;;2098936;28;19924;-49
2022/02/26 05:13:55;;;;;;;;;;;;;;;;;;2097784;28;19928;-51
2022/02/26 05:14:56;;;;;;;;;;;;;;;;;;2095774;28;19925;-51
2022/02/26 05:15:57;;;;;;;;;;;;;;;;;;2098736;28;19931;-49
2022/02/26 05:16:58;;;;;;;;;;;;;;;;;;2097417;28;19950;-43
2022/02/26 05:17:59;;;;;;;;;;;;;;;;;;2090409;28;19929;-43
2022/02/26 05:19:00;;;;;;;;;;;;;;;;;;2090551;28;19925;-43
2022/02/26 05:20:01;;;;;;;;;;;;;;;;;;2094947;28;20046;-43
2022/02/26 05:21:02;;;;;;;;;;;;;;;;;;2098927;28;19967;-43
2022/02/26 05:22:03;;;;;;;;;;;;;;;;;;2098923;28;20437;-49
2022/02/26 05:23:04;;;;;;;;;;;;;;;;;;2095900;28;19925;-43
2022/02/26 05:24:04;;;;;;;;;;;;;;;;;;2099012;28;19990;-43
2022/02/26 05:25:05;;;;;;;;;;;;;;;;;;2098747;28;19931;-44
2022/02/26 05:26:06;;;;;;;;;;;;;;;;;;2097059;28;19925;-44
2022/02/26 05:27:07;;;;;;;;;;;;;;;;;;2098852;28;19925;-43
2022/02/26 05:28:08;;;;;;;;;;;;;;;;;;2095752;28;19968;-43
2022/02/26 05:29:09;;;;;;;;;;;;;;;;;;2090639;28;20313;-49
2022/02/26 05:30:11;;;;;;;;;;;;;;;;;;2093868;28;19997;-43
2022/02/26 05:31:12;;;;;;;;;;;;;;;;;;2096506;28;20011;-43
2022/02/26 05:32:13;;;;;;;;;;;;;;;;;;2099082;28;19924;-52
2022/02/26 05:33:14;;;;;;;;;;;;;;;;;;2098276;28;19924;-49
2022/02/26 05:34:14;;;;;;;;;;;;;;;;;;2096912;28;19924;-51
2022/02/26 05:35:15;;;;;;;;;;;;;;;;;;2098833;28;19960;-50
2022/02/26 05:36:16;;;;;;;;;;;;;;;;;;2096614;28;20382;-43
2022/02/26 05:37:17;;;;;;;;;;;;;;;;;;2097826;28;19978;-42
2022/02/26 05:38:18;;;;;;;;;;;;;;;;;;2098655;28;20340;-43
2022/02/26 05:39:19;;;;;;;;;;;;;;;;;;2095247;28;20015;-43
2022/02/26 05:40:20;;;;;;;;;;;;;;;;;;2098663;28;20360;-43
2022/02/26 05:41:21;;;;;;;;;;;;;;;;;;2098736;28;19974;-44
2022/02/26 05:42:22;;;;;;;;;;;;;;;;;;2095538;28;19947;-43
2022/02/26 05:43:23;;;;;;;;;;;;;;;;;;2099564;28;20062;-44
2022/02/26 05:44:24;;;;;;;;;;;;;;;;;;2097958;28;19928;-44
2022/02/26 05:45:25;;;;;;;;;;;;;;;;;;2092906;28;20170;-44
2022/02/26 05:46:26;;;;;;;;;;;;;;;;;;2090676;28;19912;-50
2022/02/26 05:47:27;;;;;;;;;;;;;;;;;;2093352;28;19924;-51
2022/02/26 05:48:28;;;;;;;;;;;;;;;;;;2097344;28;20353;-49
2022/02/26 05:49:29;;;;;;;;;;;;;;;;;;2098652;28;19935;-49
2022/02/26 05:50:30;;;;;;;;;;;;;;;;;;2095648;28;19970;-51
2022/02/26 05:51:31;;;;;;;;;;;;;;;;;;2098370;28;20345;-50
2022/02/26 05:52:32;;;;;;;;;;;;;;;;;;2098647;28;20294;-50
2022/02/26 05:53:33;;;;;;;;;;;;;;;;;;2093924;28;19932;-51
2022/02/26 05:54:35;;;;;;;;;;;;;;;;;;2098767;28;19968;-50
2022/02/26 05:55:37;;;;;;;;;;;;;;;;;;2097473;28;20073;-49
2022/02/26 05:56:37;;;;;;;;;;;;;;;;;;2096321;28;20011;-49
2022/02/26 05:57:38;;;;;;;;;;;;;;;;;;2098663;28;19952;-49
2022/02/26 05:58:39;;;;;;;;;;;;;;;;;;2096454;28;19928;-50
2022/02/26 05:59:40;;;;;;;;;;;;;;;;;;2096217;28;19932;-51
2022/02/26 06:00:41;;;;;;;;;;;;;;;;;;2098526;28;19932;-50
2022/02/26 06:01:42;;;;;;;;;;;;;;;;;;2096191;28;20289;-49
2022/02/26 06:02:43;;;;;;;;;;;;;;;;;;2091731;28;19970;-48
2022/02/26 06:03:44;;;;;;;;;;;;;;;;;;2090235;28;20354;-47
2022/02/26 06:04:45;;;;;;;;;;;;;;;;;;2094039;28;19925;-49
2022/02/26 06:05:46;;;;;;;;;;;;;;;;;;2098547;28;19986;-51
2022/02/26 06:06:47;;;;;;;;;;;;;;;;;;2098559;28;19931;-51
2022/02/26 06:07:48;;;;;;;;;;;;;;;;;;2096090;28;20005;-48
2022/02/26 06:08:49;;;;;;;;;;;;;;;;;;2098538;28;20304;-48
2022/02/26 06:09:52;;;;;;;;;;;;;;;;;;2097414;28;20545;-49
2022/02/26 06:10:53;;;;;;;;;;;;;;;;;;2096883;28;19925;-52
2022/02/26 06:11:54;;;;;;;;;;;;;;;;;;2098603;28;19928;-44
2022/02/26 06:12:57;;;;;;;;;;;;;;;;;;2097450;28;19925;-44
2022/02/26 06:13:58;;;;;;;;;;;;;;;;;;2089933;28;20421;-44
2022/02/26 06:14:59;;;;;;;;;;;;;;;;;;2090332;28;19929;-45
2022/02/26 06:16:00;;;;;;;;;;;;;;;;;;2093319;28;20310;-45
2022/02/26 06:17:00;;;;;;;;;;;;;;;;;;2098454;28;19964;-44
2022/02/26 06:18:01;;;;;;;;;;;;;;;;;;2098453;28;20289;-44
2022/02/26 06:19:03;;;;;;;;;;;;;;;;;;2095032;28;19932;-54
2022/02/26 06:20:04;;;;;;;;;;;;;;;;;;2098654;28;19947;-54
2022/02/26 06:21:05;;;;;;;;;;;;;;;;;;2096903;28;20023;-54
2022/02/26 06:22:06;;;;;;;;;;;;;;;;;;2092717;28;20009;-51
2022/02/26 06:23:07;;;;;;;;;;;;;;;;;;2090362;28;19924;-50
2022/02/26 06:24:08;;;;;;;;;;;;;;;;;;2091596;28;20279;-53
2022/02/26 06:25:09;;;;;;;;;;;;;;;;;;2097049;28;19928;-54
2022/02/26 06:26:10;;;;;;;;;;;;;;;;;;2098235;28;20285;-51
2022/02/26 06:27:11;;;;;;;;;;;;;;;;;;2096542;28;20479;-54
2022/02/26 06:28:12;;;;;;;;;;;;;;;;;;2097969;28;19924;-52
2022/02/26 06:29:13;;;;;;;;;;;;;;;;;;2098310;28;20377;-45
2022/02/26 06:30:13;;;;;;;;;;;;;;;;;;2095837;28;19928;-44
2022/02/26 06:31:15;;;;;;;;;;;;;;;;;;2098575;28;19924;-44
2022/02/26 06:32:15;;;;;;;;;;;;;;;;;;2098344;28;20389;-46
2022/02/26 06:33:17;;;;;;;;;;;;;;;;;;2096050;28;19932;-44
2022/02/26 06:34:22;;;;;;;;;;;;;;;;;;2098452;28;20403;-54
2022/02/26 06:35:23;;;;;;;;;;;;;;;;;;2096536;28;20019;-53
2022/02/26 06:36:24;;;;;;;;;;;;;;;;;;2095777;28;19986;-52
2022/02/26 06:37:25;;;;;;;;;;;;;;;;;;2098224;28;20393;-53
2022/02/26 06:38:25;;;;;;;;;;;;;;;;;;2096288;28;20377;-44
2022/02/26 06:39:26;;;;;;;;;;;;;;;;;;2097133;28;19924;-52
2022/02/26 06:40:27;;;;;;;;;;;;;;;;;;2098351;28;19924;-54
2022/02/26 06:41:28;;;;;;;;;;;;;;;;;;2095287;28;20004;-50
2022/02/26 06:42:29;;;;;;;;;;;;;;;;;;2090010;28;20012;-54
2022/02/26 06:43:30;;;;;;;;;;;;;;;;;;2090001;28;19925;-54
2022/02/26 06:44:31;;;;;;;;;;;;;;;;;;2094705;28;19924;-53
2022/02/26 06:45:32;;;;;;;;;;;;;;;;;;2098414;28;19924;-52
2022/02/26 06:46:35;;;;;;;;;;;;;;;;;;2097713;28;19931;-53
2022/02/26 06:47:35;;;;;;;;;;;;;;;;;;2096716;28;19928;-44
2022/02/26 06:48:36;;;;;;;;;;;;;;;;;;2098186;28;20437;-44
2022/02/26 06:49:37;;;;;;;;;;;;;;;;;;2097791;28;19925;-44
2022/02/26 06:50:38;;;;;;;;;;;;;;;;;;2095922;28;19993;-53
2022/02/26 06:51:39;;;;;;;;;;;;;;;;;;2098319;28;19978;-53
2022/02/26 06:52:40;;;;;;;;;;;;;;;;;;2096246;28;19924;-54
2022/02/26 06:53:44;;;;;;;;;;;;;;;;;;2098074;28;19959;-52
2022/02/26 06:54:45;;;;;;;;;;;;;;;;;;2098113;28;19928;-52
2022/02/26 06:56:06;;;;;;;;;;;;;;;;;;2094764;28;19954;-43
2022/02/26 06:57:07;;;;;;;;;;;;;;;;;;2098267;28;19986;-54
2022/02/26 06:58:08;;;;;;;;;;;;;;;;;;2097621;28;19993;-55
2022/02/26 06:59:09;;;;;;;;;;;;;;;;;;2096180;28;19978;-54